createdAt,value
2019-05-10T00:00:17.858Z,3.00
2019-05-10T00:03:02.692Z,3.52
2019-05-10T00:05:48.146Z,2.47
2019-05-10T00:08:33.190Z,3.27
2019-05-10T00:11:07.303Z,2.52
2019-05-10T00:13:43.806Z,2.37
2019-05-10T00:16:11.437Z,3.08
2019-05-10T00:18:37.559Z,2.52
2019-05-10T00:21:04.090Z,3.00
2019-05-10T00:23:30.264Z,2.55
2019-05-10T00:25:56.489Z,2.30
2019-05-10T00:28:22.728Z,5.17
2019-05-10T00:30:48.996Z,2.52
2019-05-10T00:33:15.190Z,2.42
2019-05-10T00:35:42.397Z,3.25
2019-05-10T00:38:08.576Z,4.35
2019-05-10T00:40:34.831Z,2.20
2019-05-10T00:43:00.998Z,5.83
2019-05-10T00:45:27.235Z,2.55
2019-05-10T00:47:53.424Z,2.22
2019-05-10T00:50:19.677Z,1.92
2019-05-10T00:52:45.773Z,2.30
2019-05-10T00:55:18.980Z,2.25
2019-05-10T00:57:40.279Z,3.47
2019-05-10T01:00:07.093Z,2.45
2019-05-10T01:02:33.358Z,2.17
2019-05-10T01:04:59.521Z,2.45
2019-05-10T01:07:25.779Z,2.58
2019-05-10T01:09:52.058Z,3.00
2019-05-10T01:12:18.323Z,2.98
2019-05-10T01:14:44.498Z,2.25
2019-05-10T01:17:10.697Z,2.65
2019-05-10T01:19:37.028Z,3.67
2019-05-10T01:22:03.298Z,2.80
2019-05-10T01:24:29.504Z,3.12
2019-05-10T01:26:55.621Z,2.75
2019-05-10T01:29:21.837Z,4.10
2019-05-10T01:31:47.935Z,3.30
2019-05-10T01:34:14.299Z,5.15
2019-05-10T01:36:40.404Z,3.15
2019-05-10T01:39:06.568Z,2.75
2019-05-10T01:41:32.735Z,2.55
2019-05-10T01:43:58.880Z,4.10
2019-05-10T01:46:25.009Z,2.98
2019-05-10T01:48:51.207Z,4.37
2019-05-10T01:51:17.376Z,2.55
2019-05-10T01:53:43.723Z,3.10
2019-05-10T01:56:09.938Z,3.12
2019-05-10T01:58:36.100Z,3.83
2019-05-10T02:01:04.962Z,3.58
2019-05-10T02:03:31.086Z,3.77
2019-05-10T02:05:57.420Z,3.10
2019-05-10T02:08:23.691Z,5.62
2019-05-10T02:10:51.084Z,3.35
2019-05-10T02:13:17.383Z,5.08
2019-05-10T02:15:43.554Z,3.83
2019-05-10T02:18:09.887Z,6.05
2019-05-10T02:20:36.063Z,3.80
2019-05-10T02:23:02.403Z,4.17
2019-05-10T02:25:28.603Z,4.25
2019-05-10T02:27:54.726Z,4.62
2019-05-10T02:30:21.167Z,4.62
2019-05-10T02:32:47.313Z,5.15
2019-05-10T02:35:15.739Z,5.15
2019-05-10T02:37:42.018Z,5.20
2019-05-10T02:40:08.469Z,4.60
2019-05-10T02:42:34.783Z,6.33
2019-05-10T02:45:01.166Z,5.08
2019-05-10T02:47:27.369Z,4.92
2019-05-10T02:49:53.481Z,5.45
2019-05-10T02:52:19.746Z,5.17
2019-05-10T02:54:45.884Z,14.10
2019-05-10T02:57:12.636Z,5.33
2019-05-10T02:59:40.114Z,5.03
2019-05-10T03:02:06.404Z,5.58
2019-05-10T03:04:34.869Z,7.25
2019-05-10T03:07:02.224Z,6.35
2019-05-10T03:09:32.196Z,6.90
2019-05-10T03:12:02.531Z,6.87
2019-05-10T03:14:32.623Z,6.87
2019-05-10T03:17:02.466Z,7.53
2019-05-10T03:19:30.231Z,6.50
2019-05-10T03:22:04.782Z,7.67
2019-05-10T03:24:32.188Z,7.65
2019-05-10T03:26:58.932Z,6.83
2019-05-10T03:29:25.478Z,7.50
2019-05-10T03:31:52.084Z,7.37
2019-05-10T03:34:18.203Z,7.33
2019-05-10T03:36:44.426Z,8.20
2019-05-10T03:39:10.534Z,8.85
2019-05-10T03:41:36.946Z,7.80
2019-05-10T03:44:03.574Z,8.78
2019-05-10T03:46:29.790Z,8.18
2019-05-10T03:48:56.021Z,7.60
2019-05-10T03:51:22.131Z,8.08
2019-05-10T03:53:48.367Z,7.83
2019-05-10T03:56:14.477Z,8.10
2019-05-10T03:58:40.677Z,8.10
2019-05-10T04:01:06.782Z,9.20
2019-05-10T04:03:32.995Z,11.78
2019-05-10T04:05:59.317Z,8.23
2019-05-10T04:08:25.590Z,8.98
2019-05-10T04:10:51.968Z,8.38
2019-05-10T04:13:18.230Z,9.20
2019-05-10T04:15:45.742Z,8.03
2019-05-10T04:18:11.902Z,8.60
2019-05-10T04:20:38.048Z,19.77
2019-05-10T04:23:04.206Z,11.65
2019-05-10T04:25:30.361Z,8.35
2019-05-10T04:27:56.538Z,9.58
2019-05-10T04:30:22.823Z,8.80
2019-05-10T04:32:49.047Z,8.93
2019-05-10T04:35:15.162Z,9.75
2019-05-10T04:37:41.375Z,6.90
2019-05-10T04:40:08.704Z,6.78
2019-05-10T04:42:34.905Z,6.53
2019-05-10T04:45:01.413Z,9.73
2019-05-10T04:47:27.633Z,7.17
2019-05-10T04:49:53.810Z,7.25
2019-05-10T04:52:21.091Z,8.35
2019-05-10T04:54:48.438Z,6.28
2019-05-10T04:57:14.589Z,7.10
2019-05-10T04:59:40.752Z,7.83
2019-05-10T05:02:06.919Z,6.15
2019-05-10T05:04:33.113Z,5.42
2019-05-10T05:06:59.398Z,6.40
2019-05-10T05:09:26.597Z,5.97
2019-05-10T05:11:52.777Z,6.25
2019-05-10T05:14:19.141Z,5.75
2019-05-10T05:16:45.404Z,6.42
2019-05-10T05:19:11.662Z,5.85
2019-05-10T05:21:37.884Z,7.53
2019-05-10T05:24:03.981Z,7.12
2019-05-10T05:26:30.184Z,8.53
2019-05-10T05:28:56.288Z,6.67
2019-05-10T05:31:22.546Z,7.15
2019-05-10T05:33:48.801Z,7.78
2019-05-10T05:36:15.118Z,7.42
2019-05-10T05:38:47.127Z,6.37
2019-05-10T05:41:09.438Z,6.17
2019-05-10T05:43:35.646Z,6.70
2019-05-10T05:46:01.854Z,5.83
2019-05-10T05:48:39.783Z,6.58
2019-05-10T05:50:56.368Z,5.47
2019-05-10T05:53:22.811Z,6.12
2019-05-10T05:55:49.025Z,5.83
2019-05-10T05:58:25.600Z,6.50
2019-05-10T06:00:46.808Z,5.05
2019-05-10T06:03:19.309Z,6.55
2019-05-10T06:05:41.252Z,6.33
2019-05-10T06:08:21.283Z,5.10
2019-05-10T06:10:35.677Z,6.08
2019-05-10T06:13:01.787Z,4.90
2019-05-10T06:15:29.197Z,6.45
2019-05-10T06:17:57.589Z,5.40
2019-05-10T06:20:24.290Z,7.55
2019-05-10T06:23:05.545Z,4.58
2019-05-10T06:25:18.739Z,5.83
2019-05-10T06:27:44.995Z,5.78
2019-05-10T06:30:11.377Z,7.80
2019-05-10T06:32:37.534Z,8.68
2019-05-10T06:35:06.667Z,4.97
2019-05-10T06:37:33.141Z,5.92
2019-05-10T06:39:59.304Z,9.35
2019-05-10T06:42:28.733Z,6.00
2019-05-10T06:44:53.522Z,6.55
2019-05-10T06:47:21.888Z,5.55
2019-05-10T06:49:52.148Z,6.10
2019-05-10T06:52:16.529Z,5.25
2019-05-10T06:54:42.831Z,6.78
2019-05-10T06:57:11.290Z,6.30
2019-05-10T06:59:37.078Z,5.35
2019-05-10T07:02:03.341Z,4.03
2019-05-10T07:04:34.515Z,3.20
2019-05-10T07:06:57.579Z,3.40
2019-05-10T07:09:23.785Z,6.95
2019-05-10T07:11:50.004Z,6.42
2019-05-10T07:14:16.243Z,3.20
2019-05-10T07:16:42.491Z,7.00
2019-05-10T07:19:08.615Z,5.80
2019-05-10T07:21:38.901Z,3.83
2019-05-10T07:24:03.005Z,3.83
2019-05-10T07:26:29.353Z,3.95
2019-05-10T07:28:57.627Z,4.42
2019-05-10T07:31:24.006Z,3.02
2019-05-10T07:33:50.313Z,4.05
2019-05-10T07:36:20.916Z,4.03
2019-05-10T07:38:44.742Z,5.75
2019-05-10T07:41:11.048Z,2.95
2019-05-10T07:43:37.695Z,2.87
2019-05-10T07:46:08.943Z,4.42
2019-05-10T07:48:32.106Z,2.37
2019-05-10T07:50:58.285Z,3.90
2019-05-10T07:53:25.280Z,3.60
2019-05-10T07:55:51.652Z,4.78
2019-05-10T07:58:17.843Z,2.60
2019-05-10T08:00:46.491Z,5.05
2019-05-10T08:03:16.835Z,2.83
2019-05-10T08:05:40.334Z,3.27
2019-05-10T08:08:06.776Z,3.45
2019-05-10T08:10:33.159Z,3.87
2019-05-10T08:13:03.224Z,3.72
2019-05-10T08:15:30.516Z,4.08
2019-05-10T08:17:55.591Z,3.60
2019-05-10T08:20:41.032Z,5.22
2019-05-10T08:22:49.822Z,4.83
2019-05-10T08:25:15.927Z,3.20
2019-05-10T08:27:50.066Z,5.80
2019-05-10T08:30:22.620Z,2.50
2019-05-10T08:32:38.854Z,4.10
2019-05-10T08:35:16.365Z,6.72
2019-05-10T08:37:37.792Z,4.92
2019-05-10T08:40:04.108Z,9.23
2019-05-10T08:42:43.845Z,4.65
2019-05-10T08:45:05.474Z,3.55
2019-05-10T08:47:29.527Z,2.87
2019-05-10T08:50:10.550Z,4.33
2019-05-10T08:52:30.592Z,3.65
2019-05-10T08:54:54.935Z,1.70
2019-05-10T08:57:22.139Z,3.65
2019-05-10T08:59:54.484Z,4.83
2019-05-10T09:02:23.108Z,3.92
2019-05-10T09:04:50.200Z,3.50
2019-05-10T09:07:13.768Z,3.75
2019-05-10T09:09:45.788Z,2.77
2019-05-10T09:12:09.384Z,4.53
2019-05-10T09:14:36.230Z,4.30
2019-05-10T09:17:04.346Z,2.02
2019-05-10T09:19:37.350Z,4.62
2019-05-10T09:21:58.663Z,1.65
2019-05-10T09:24:24.942Z,2.02
2019-05-10T09:26:54.770Z,3.22
2019-05-10T09:29:19.240Z,4.28
2019-05-10T09:31:50.463Z,4.33
2019-05-10T09:34:13.470Z,3.05
2019-05-10T09:36:42.933Z,3.08
2019-05-10T09:39:09.187Z,1.57
2019-05-10T09:41:38.261Z,2.40
2019-05-10T09:44:04.250Z,3.80
2019-05-10T09:46:32.436Z,6.17
2019-05-10T09:49:04.812Z,2.70
2019-05-10T09:51:30.235Z,2.25
2019-05-10T09:53:54.806Z,2.27
2019-05-10T09:56:20.988Z,2.02
2019-05-10T09:58:48.337Z,3.17
2019-05-10T10:01:21.242Z,3.40
2019-05-10T10:03:44.866Z,1.95
2019-05-10T10:06:11.582Z,3.42
2019-05-10T10:08:38.641Z,2.30
2019-05-10T10:11:13.500Z,4.78
2019-05-10T10:13:40.864Z,3.08
2019-05-10T10:16:04.045Z,4.28
2019-05-10T10:18:31.164Z,2.60
2019-05-10T10:20:57.581Z,3.20
2019-05-10T10:23:29.912Z,3.25
2019-05-10T10:25:53.447Z,2.83
2019-05-10T10:28:22.558Z,4.65
2019-05-10T10:30:50.417Z,2.33
2019-05-10T10:33:22.479Z,2.60
2019-05-10T10:35:47.906Z,4.78
2019-05-10T10:38:13.449Z,4.10
2019-05-10T10:40:44.516Z,4.97
2019-05-10T10:43:07.925Z,3.20
2019-05-10T10:45:34.131Z,5.60
2019-05-10T10:48:02.561Z,4.90
2019-05-10T10:50:29.065Z,5.55
2019-05-10T10:52:57.507Z,2.47
2019-05-10T10:55:23.733Z,2.08
2019-05-10T10:57:49.957Z,3.47
2019-05-10T11:00:23.265Z,4.15
2019-05-10T11:02:51.870Z,5.95
2019-05-10T11:05:16.307Z,2.50
2019-05-10T11:07:47.303Z,2.98
2019-05-10T11:10:16.180Z,3.10
2019-05-10T11:12:41.261Z,3.62
2019-05-10T11:15:07.353Z,3.25
2019-05-10T11:17:33.610Z,3.70
2019-05-10T11:20:00.610Z,3.33
2019-05-10T11:22:27.453Z,2.40
2019-05-10T11:25:03.080Z,2.52
2019-05-10T11:27:22.562Z,2.40
2019-05-10T11:29:52.756Z,6.37
2019-05-10T11:32:17.183Z,2.20
2019-05-10T11:34:43.519Z,4.15
2019-05-10T11:37:09.774Z,3.02
2019-05-10T11:39:41.956Z,2.22
2019-05-10T11:42:07.157Z,2.08
2019-05-10T11:44:32.252Z,2.45
2019-05-10T11:46:58.510Z,3.00
2019-05-10T11:49:24.680Z,2.62
2019-05-10T11:51:54.859Z,5.47
2019-05-10T11:54:21.562Z,2.83
2019-05-10T11:56:47.990Z,3.70
2019-05-10T11:59:16.459Z,3.15
2019-05-10T12:01:42.300Z,1.98
2019-05-10T12:04:13.152Z,1.30
2019-05-10T12:06:41.287Z,5.67
2019-05-10T12:09:05.661Z,4.17
2019-05-10T12:11:33.929Z,3.67
2019-05-10T12:14:02.381Z,1.90
2019-05-10T12:16:28.003Z,4.12
2019-05-10T12:21:22.390Z,2.15
2019-05-10T12:23:51.940Z,3.22
2019-05-10T12:26:36.003Z,4.92
2019-05-10T12:27:13.979Z,3.75
2019-05-10T12:28:45.173Z,4.65
2019-05-10T12:31:15.093Z,5.95
2019-05-10T12:33:44.557Z,2.42
2019-05-10T12:36:13.090Z,2.30
2019-05-10T12:38:38.058Z,2.00
2019-05-10T12:41:05.510Z,2.00
2019-05-10T12:43:32.814Z,2.77
2019-05-10T12:45:59.006Z,2.80
2019-05-10T12:48:26.317Z,2.20
2019-05-10T12:50:57.942Z,3.98
2019-05-10T12:53:22.274Z,2.60
2019-05-10T12:55:48.541Z,2.80
2019-05-10T12:58:14.724Z,1.82
2019-05-10T13:00:40.913Z,2.52
2019-05-10T13:03:12.803Z,3.80
2019-05-10T13:05:51.091Z,1.77
2019-05-10T13:08:03.321Z,2.67
2019-05-10T13:10:29.660Z,2.27
2019-05-10T13:12:55.826Z,2.27
2019-05-10T13:15:24.638Z,2.00
2019-05-10T13:17:53.090Z,2.70
2019-05-10T13:20:19.743Z,3.72
2019-05-10T13:22:45.854Z,2.92
2019-05-10T13:25:12.475Z,1.42
2019-05-10T13:27:38.854Z,1.95
2019-05-10T13:30:06.850Z,4.12
2019-05-10T13:32:33.059Z,1.92
2019-05-10T13:34:59.297Z,1.67
2019-05-10T13:37:25.516Z,1.92
2019-05-10T13:39:51.744Z,4.97
2019-05-10T13:42:18.048Z,2.05
2019-05-10T13:44:44.601Z,3.40
2019-05-10T13:47:11.050Z,3.20
2019-05-10T13:49:37.351Z,3.65
2019-05-10T13:52:03.460Z,1.82
2019-05-10T13:54:31.221Z,5.22
2019-05-10T13:56:57.713Z,4.15
2019-05-10T13:59:24.193Z,2.22
2019-05-10T14:01:51.500Z,6.35
2019-05-10T14:04:17.966Z,2.75
2019-05-10T14:06:44.250Z,1.90
2019-05-10T14:09:10.659Z,1.95
2019-05-10T14:11:40.363Z,2.30
2019-05-10T14:14:05.104Z,1.95
2019-05-10T14:16:31.263Z,2.35
2019-05-10T14:18:57.405Z,1.95
2019-05-10T14:21:23.814Z,3.70
2019-05-10T14:23:49.966Z,1.77
2019-05-10T14:26:18.236Z,2.70
2019-05-10T14:28:47.385Z,1.80
2019-05-10T14:31:12.497Z,3.30
2019-05-10T14:33:38.736Z,2.25
2019-05-10T14:36:04.890Z,2.25
2019-05-10T14:38:31.088Z,1.20
2019-05-10T14:40:57.274Z,2.02
2019-05-10T14:43:23.527Z,2.45
2019-05-10T14:45:49.642Z,5.83
2019-05-10T14:48:15.865Z,2.02
2019-05-10T14:50:46.195Z,4.42
2019-05-10T14:53:10.269Z,1.10
2019-05-10T14:55:36.996Z,2.77
2019-05-10T14:58:03.531Z,1.87
2019-05-10T15:00:29.772Z,2.77
2019-05-10T15:02:56.693Z,2.30
2019-05-10T15:05:24.218Z,2.40
2019-05-10T15:07:51.224Z,1.95
2019-05-10T15:10:17.803Z,1.82
2019-05-10T15:12:43.980Z,1.82
2019-05-10T15:15:10.701Z,2.85
2019-05-10T15:17:36.813Z,3.98
2019-05-10T15:20:05.677Z,4.00
2019-05-10T15:22:31.792Z,4.15
2019-05-10T15:24:58.062Z,5.67
2019-05-10T15:27:24.202Z,4.92
2019-05-10T15:29:50.408Z,3.33
2019-05-10T15:32:16.522Z,2.70
2019-05-10T15:34:42.784Z,4.37
2019-05-10T15:37:10.575Z,3.72
2019-05-10T15:39:37.012Z,2.35
2019-05-10T15:42:03.383Z,5.67
2019-05-10T15:44:31.390Z,3.40
2019-05-10T15:46:57.748Z,3.25
2019-05-10T15:49:25.062Z,5.75
2019-05-10T15:51:56.850Z,2.70
2019-05-10T15:54:19.272Z,3.25
2019-05-10T15:56:45.541Z,4.53
2019-05-10T15:59:12.924Z,5.50
2019-05-10T16:01:39.913Z,7.00
2019-05-10T16:04:06.173Z,3.75
2019-05-10T16:06:37.558Z,11.73
2019-05-10T16:09:02.810Z,13.08
2019-05-10T16:11:29.812Z,4.30
2019-05-10T16:14:00.121Z,2.45
2019-05-10T16:16:24.363Z,5.90
2019-05-10T16:18:50.529Z,2.70
2019-05-10T16:21:16.903Z,2.47
2019-05-10T16:23:46.807Z,1.82
2019-05-10T16:26:11.808Z,4.33
2019-05-10T16:28:38.009Z,5.05
2019-05-10T16:31:04.388Z,2.90
2019-05-10T16:33:30.626Z,3.15
2019-05-10T16:35:56.874Z,3.17
2019-05-10T16:38:23.269Z,3.02
2019-05-10T16:40:58.348Z,3.72
2019-05-10T16:43:23.867Z,2.17
2019-05-10T16:45:46.488Z,2.62
2019-05-10T16:48:12.639Z,2.98
2019-05-10T16:50:38.843Z,1.82
2019-05-10T16:53:07.973Z,2.50
2019-05-10T16:55:35.679Z,3.33
2019-05-10T16:58:01.651Z,1.92
2019-05-10T17:00:28.124Z,3.85
2019-05-10T17:02:54.284Z,4.12
2019-05-10T17:05:20.552Z,1.75
2019-05-10T17:07:46.718Z,2.65
2019-05-10T17:10:13.223Z,5.08
2019-05-10T17:12:39.418Z,2.55
2019-05-10T17:15:05.773Z,2.90
2019-05-10T17:17:37.091Z,4.53
2019-05-10T17:20:00.701Z,3.77
2019-05-10T17:22:26.959Z,6.03
2019-05-10T17:24:56.763Z,7.35
2019-05-10T17:27:21.416Z,4.60
2019-05-10T17:29:49.826Z,3.05
2019-05-10T17:32:18.533Z,2.90
2019-05-10T17:34:44.057Z,3.87
2019-05-10T17:37:11.281Z,2.17
2019-05-10T17:39:37.479Z,4.80
2019-05-10T17:42:05.049Z,2.52
2019-05-10T17:44:31.418Z,4.20
2019-05-10T17:46:57.634Z,2.00
2019-05-10T17:49:23.975Z,3.52
2019-05-10T17:51:50.345Z,3.60
2019-05-10T17:54:17.636Z,2.65
2019-05-10T17:56:44.042Z,3.02
2019-05-10T17:59:12.030Z,3.02
2019-05-10T18:01:38.711Z,2.65
2019-05-10T18:04:05.005Z,3.05
2019-05-10T18:06:31.176Z,3.77
2019-05-10T18:08:57.476Z,7.12
2019-05-10T18:11:23.877Z,5.05
2019-05-10T18:13:50.163Z,6.50
2019-05-10T18:16:17.397Z,2.10
2019-05-10T18:18:47.192Z,3.27
2019-05-10T18:21:15.739Z,3.35
2019-05-10T18:23:40.041Z,4.50
2019-05-10T18:26:06.327Z,2.40
2019-05-10T18:28:32.537Z,3.55
2019-05-10T18:30:58.715Z,3.87
2019-05-10T18:33:26.154Z,3.72
2019-05-10T18:35:54.504Z,2.77
2019-05-10T18:38:20.423Z,2.83
2019-05-10T18:40:46.695Z,3.85
2019-05-10T18:43:13.025Z,3.15
2019-05-10T18:45:39.210Z,3.77
2019-05-10T18:48:05.479Z,5.60
2019-05-10T18:50:31.628Z,7.00
2019-05-10T18:52:57.866Z,4.67
2019-05-10T18:55:24.252Z,3.58
2019-05-10T18:57:52.588Z,4.30
2019-05-10T19:00:23.225Z,4.58
2019-05-10T19:02:49.654Z,5.90
2019-05-10T19:05:15.928Z,2.80
2019-05-10T19:07:42.333Z,3.22
2019-05-10T19:10:08.958Z,4.55
2019-05-10T19:12:35.894Z,3.92
2019-05-10T19:15:08.999Z,4.67
2019-05-10T19:17:33.514Z,5.85
2019-05-10T19:19:59.816Z,4.00
2019-05-10T19:22:27.095Z,7.08
2019-05-10T19:24:56.697Z,5.37
2019-05-10T19:27:24.881Z,5.35
2019-05-10T19:29:50.531Z,4.40
2019-05-10T19:32:18.030Z,4.90
2019-05-10T19:34:48.281Z,4.42
2019-05-10T19:37:26.853Z,4.00
2019-05-10T19:39:40.996Z,4.90
2019-05-10T19:42:07.313Z,5.22
2019-05-10T19:44:34.803Z,2.40
2019-05-10T19:47:01.952Z,3.95
2019-05-10T19:49:28.143Z,3.42
2019-05-10T19:51:54.496Z,3.37
2019-05-10T19:54:21.321Z,3.17
2019-05-10T19:56:47.776Z,5.20
2019-05-10T19:59:13.884Z,3.10
2019-05-10T20:01:40.222Z,4.12
2019-05-10T20:04:09.352Z,3.33
2019-05-10T20:06:34.429Z,4.72
2019-05-10T20:09:00.619Z,2.52
2019-05-10T20:11:27.043Z,6.33
2019-05-10T20:13:53.199Z,2.92
2019-05-10T20:16:19.431Z,8.85
2019-05-10T20:18:45.728Z,7.80
2019-05-10T20:21:11.978Z,10.58
2019-05-10T20:23:38.221Z,9.65
2019-05-10T20:26:04.385Z,9.25
2019-05-10T20:28:30.608Z,7.30
2019-05-10T20:30:56.720Z,8.65
2019-05-10T20:33:22.937Z,8.30
2019-05-10T20:35:49.047Z,6.72
2019-05-10T20:38:15.377Z,9.30
2019-05-10T20:40:41.532Z,9.75
2019-05-10T20:43:07.748Z,9.70
2019-05-10T20:45:34.096Z,10.80
2019-05-10T20:48:00.318Z,9.35
2019-05-10T20:50:26.431Z,10.35
2019-05-10T20:52:55.875Z,10.72
2019-05-10T20:55:22.002Z,9.88
2019-05-10T20:57:48.224Z,8.23
2019-05-10T21:00:14.651Z,5.85
2019-05-10T21:02:40.882Z,5.55
2019-05-10T21:05:07.815Z,4.80
2019-05-10T21:07:34.043Z,4.62
2019-05-10T21:10:00.283Z,5.08
2019-05-10T21:12:26.603Z,5.17
2019-05-10T21:14:52.743Z,4.22
2019-05-10T21:17:18.983Z,4.75
2019-05-10T21:19:45.160Z,4.87
2019-05-10T21:22:11.452Z,5.65
2019-05-10T21:24:37.665Z,8.18
2019-05-10T21:27:03.955Z,8.90
2019-05-10T21:29:30.153Z,8.13
2019-05-10T21:31:56.327Z,7.80
2019-05-10T21:34:22.486Z,7.17
2019-05-10T21:36:48.715Z,8.03
2019-05-10T21:39:15.867Z,7.45
2019-05-10T21:41:42.038Z,9.43
2019-05-10T21:44:08.210Z,18.25
2019-05-10T21:46:35.285Z,9.23
2019-05-10T21:49:01.390Z,7.15
2019-05-10T21:51:27.624Z,7.12
2019-05-10T21:53:53.747Z,6.33
2019-05-10T21:56:19.957Z,6.05
2019-05-10T21:58:46.130Z,6.62
2019-05-10T22:01:12.476Z,6.80
2019-05-10T22:03:38.830Z,7.30
2019-05-10T22:06:05.000Z,7.47
2019-05-10T22:08:31.266Z,6.00
2019-05-10T22:10:57.642Z,6.28
2019-05-10T22:13:23.987Z,5.78
2019-05-10T22:15:50.296Z,6.20
2019-05-10T22:18:16.450Z,5.55
2019-05-10T22:20:42.630Z,6.78
2019-05-10T22:23:08.799Z,4.62
2019-05-10T22:25:35.025Z,6.08
2019-05-10T22:28:01.252Z,6.67
2019-05-10T22:30:27.575Z,5.65
2019-05-10T22:32:53.887Z,6.67
2019-05-10T22:35:20.012Z,8.30
2019-05-10T22:37:46.235Z,6.22
2019-05-10T22:40:12.685Z,6.50
2019-05-10T22:42:38.944Z,6.83
2019-05-10T22:45:05.357Z,8.78
2019-05-10T22:47:31.465Z,8.60
2019-05-10T22:49:57.776Z,8.80
2019-05-10T22:52:24.034Z,8.95
2019-05-10T22:54:50.271Z,10.58
2019-05-10T22:57:16.443Z,11.10
2019-05-10T22:59:42.700Z,9.93
2019-05-10T23:02:08.971Z,8.63
2019-05-10T23:04:35.181Z,8.90
2019-05-10T23:07:01.292Z,9.05
2019-05-10T23:09:27.508Z,9.48
2019-05-10T23:11:53.672Z,7.62
2019-05-10T23:14:19.954Z,9.38
2019-05-10T23:16:46.234Z,7.08
2019-05-10T23:19:12.491Z,6.58
2019-05-10T23:21:38.711Z,6.00
2019-05-10T23:24:07.512Z,6.05
2019-05-10T23:26:34.719Z,6.45
2019-05-10T23:29:00.818Z,6.22
2019-05-10T23:31:27.013Z,5.67
2019-05-10T23:33:53.114Z,5.08
2019-05-10T23:36:19.353Z,5.10
2019-05-10T23:38:45.851Z,4.00
2019-05-10T23:41:12.089Z,6.53
2019-05-10T23:43:38.195Z,5.55
2019-05-10T23:46:05.404Z,4.75
2019-05-10T23:48:31.549Z,3.98
2019-05-10T23:50:57.799Z,4.85
2019-05-10T23:53:24.099Z,4.55
2019-05-10T23:55:50.375Z,4.83
2019-05-10T23:58:16.678Z,7.00
